Time;durP1;ratioP1;P1;durP2;ratioP2;P2;SDS_P1;SDS_P2;PMS_P1;PMS_P2;Temp;Humidity;BMP_temperature;BMP_pressure;BME280_temperature;BME280_humidity;BME280_pressure;Samples;Min_cycle;Max_cycle;Signal;HPM_P1;HPM_P2
2024/03/12 00:01:39;;;;;;;24.20;15.88;;;8.60;99.90;;;;;;5024607;28;20078;-73
2024/03/12 00:04:10;;;;;;;35.33;23.33;;;8.60;99.90;;;;;;4991727;28;20424;-72
2024/03/12 00:06:37;;;;;;;34.72;22.58;;;8.60;99.90;;;;;;4991619;28;20046;-72
2024/03/12 00:09:09;;;;;;;23.27;16.55;;;8.60;99.90;;;;;;5007837;28;20085;-73
2024/03/12 00:11:36;;;;;;;35.13;23.98;;;8.50;99.90;;;;;;4991609;28;20440;-72
2024/03/12 00:14:03;;;;;;;34.15;20.63;;;8.60;99.90;;;;;;5007882;28;20050;-73
2024/03/12 00:16:31;;;;;;;35.72;22.70;;;8.50;99.90;;;;;;4991464;28;20606;-73
2024/03/12 00:19:00;;;;;;;33.75;20.25;;;8.50;99.90;;;;;;4991635;28;20043;-73
2024/03/12 00:21:28;;;;;;;26.75;16.25;;;8.50;99.90;;;;;;4992900;28;20492;-73
2024/03/12 00:23:56;;;;;;;18.45;11.93;;;8.50;99.90;;;;;;4991553;28;20145;-73
2024/03/12 00:26:23;;;;;;;36.92;22.42;;;8.50;99.90;;;;;;5008092;28;20050;-73
2024/03/12 00:28:49;;;;;;;37.10;23.13;;;8.50;99.90;;;;;;4991310;28;20050;-72
2024/03/12 00:31:17;;;;;;;36.22;21.15;;;8.60;99.90;;;;;;5024219;28;20095;-72
2024/03/12 00:33:46;;;;;;;37.40;23.17;;;8.50;99.90;;;;;;4992886;28;20500;-73
2024/03/12 00:36:14;;;;;;;32.83;20.50;;;8.50;99.90;;;;;;5011314;28;20129;-72
2024/03/12 00:38:41;;;;;;;34.97;23.10;;;8.50;99.90;;;;;;4978945;28;20046;-73
2024/03/12 00:41:08;;;;;;;39.00;22.38;;;8.50;99.90;;;;;;5028000;28;20097;-72
2024/03/12 00:43:35;;;;;;;15.75;9.82;;;8.40;99.90;;;;;;4994885;28;20050;-72
2024/03/12 00:46:04;;;;;;;37.08;22.30;;;8.30;99.90;;;;;;4979212;28;20047;-72
2024/03/12 00:48:31;;;;;;;36.08;25.00;;;8.30;99.90;;;;;;4978982;28;20455;-72
2024/03/12 00:50:58;;;;;;;26.05;16.98;;;8.30;99.90;;;;;;4996117;28;20042;-72
2024/03/12 00:53:25;;;;;;;34.80;20.83;;;8.30;99.90;;;;;;4996187;28;20045;-73
2024/03/12 00:55:53;;;;;;;37.75;22.48;;;8.30;99.90;;;;;;4978633;28;20042;-73
2024/03/12 00:58:20;;;;;;;18.75;12.10;;;8.30;99.90;;;;;;5027608;28;20109;-72
2024/03/12 01:00:49;;;;;;;37.47;25.10;;;8.30;99.90;;;;;;4995902;28;20445;-73
2024/03/12 01:03:17;;;;;;;17.90;10.77;;;8.30;99.90;;;;;;4996071;28;20042;-72
2024/03/12 01:05:44;;;;;;;35.10;21.13;;;8.30;99.90;;;;;;4978520;28;20085;-73
2024/03/12 01:08:12;;;;;;;30.25;18.20;;;8.30;99.90;;;;;;4994692;28;20054;-72
2024/03/12 01:10:39;;;;;;;31.05;18.83;;;8.20;99.90;;;;;;4995758;28;20046;-72
2024/03/12 01:13:08;;;;;;;36.35;22.40;;;8.30;99.90;;;;;;4994557;28;20038;-72
2024/03/12 01:15:36;;;;;;;41.60;23.15;;;8.30;99.90;;;;;;4995488;28;20089;-73
2024/03/12 01:18:04;;;;;;;20.10;14.10;;;8.30;99.90;;;;;;4978507;28;20060;-72
2024/03/12 01:20:34;;;;;;;31.77;19.58;;;8.20;99.90;;;;;;4978501;28;20053;-72
2024/03/12 01:23:04;;;;;;;28.15;17.90;;;8.20;99.90;;;;;;4995707;28;20054;-72
2024/03/12 01:25:34;;;;;;;41.70;23.80;;;8.20;99.90;;;;;;4994556;28;20064;-72
2024/03/12 01:28:02;;;;;;;45.08;26.45;;;8.20;99.90;;;;;;4995538;28;20050;-72
2024/03/12 01:30:30;;;;;;;39.83;24.77;;;8.20;99.90;;;;;;4994472;28;20050;-73
2024/03/12 01:32:57;;;;;;;38.17;24.90;;;8.20;99.90;;;;;;4995184;28;20097;-72
2024/03/12 01:35:25;;;;;;;40.95;25.27;;;8.20;99.90;;;;;;4994503;28;20062;-73
2024/03/12 01:37:52;;;;;;;45.03;27.35;;;8.30;99.90;;;;;;5026570;28;20046;-72
2024/03/12 01:40:22;;;;;;;48.47;27.13;;;8.20;99.90;;;;;;4994111;28;20542;-72
2024/03/12 01:42:51;;;;;;;16.05;10.80;;;8.20;99.90;;;;;;5026546;28;20046;-72
2024/03/12 01:45:21;;;;;;;45.83;25.85;;;8.20;99.90;;;;;;4977258;28;20101;-72
2024/03/12 01:47:50;;;;;;;46.40;27.38;;;8.30;99.90;;;;;;4993814;28;20499;-72
2024/03/12 01:50:18;;;;;;;40.53;22.60;;;8.20;99.90;;;;;;4995232;28;20108;-72
2024/03/12 01:52:46;;;;;;;49.63;29.65;;;8.20;99.90;;;;;;4993590;28;20050;-72
2024/03/12 01:55:14;;;;;;;47.22;33.35;;;8.20;99.90;;;;;;4993684;28;20408;-72
2024/03/12 01:57:42;;;;;;;46.42;27.33;;;8.20;99.90;;;;;;4977465;28;20054;-72
2024/03/12 02:00:10;;;;;;;39.53;21.45;;;8.20;99.90;;;;;;4993845;28;20113;-72
2024/03/12 02:02:38;;;;;;;47.10;27.77;;;8.20;99.90;;;;;;4995373;28;20058;-72
2024/03/12 02:05:05;;;;;;;32.83;16.98;;;8.20;99.90;;;;;;4993264;28;20046;-72
2024/03/12 02:07:34;;;;;;;41.80;26.27;;;8.20;99.90;;;;;;4993589;28;20042;-72
2024/03/12 02:10:01;;;;;;;36.47;24.27;;;8.30;99.90;;;;;;5025969;28;20444;-72
2024/03/12 02:12:28;;;;;;;37.97;24.13;;;8.30;99.90;;;;;;4993390;28;20042;-72
2024/03/12 02:14:55;;;;;;;36.53;25.27;;;8.30;99.90;;;;;;5025927;28;20447;-73
2024/03/12 02:17:22;;;;;;;37.60;24.85;;;8.30;99.90;;;;;;4993526;28;20039;-72
2024/03/12 02:19:49;;;;;;;40.75;24.45;;;8.30;99.90;;;;;;4994459;28;20035;-72
2024/03/12 02:22:16;;;;;;;38.70;23.38;;;8.30;99.90;;;;;;4993392;28;20049;-72
2024/03/12 02:24:46;;;;;;;37.65;22.83;;;8.30;99.90;;;;;;5025820;28;20050;-73
2024/03/12 02:27:13;;;;;;;35.92;22.45;;;8.30;99.90;;;;;;4993420;28;20551;-71
2024/03/12 02:29:40;;;;;;;34.40;18.83;;;8.30;99.90;;;;;;4994727;28;20073;-73
2024/03/12 02:32:07;;;;;;;40.28;23.20;;;8.30;99.90;;;;;;4992939;28;20046;-73
2024/03/12 02:34:34;;;;;;;33.22;20.90;;;8.20;99.90;;;;;;4993190;28;20511;-72
2024/03/12 02:37:02;;;;;;;33.78;21.75;;;8.30;99.90;;;;;;5025449;28;20046;-72
2024/03/12 02:39:32;;;;;;;29.27;19.58;;;8.20;99.90;;;;;;4994151;28;20042;-72
2024/03/12 02:41:59;;;;;;;31.50;22.38;;;8.20;99.90;;;;;;5025417;28;20395;-72
2024/03/12 02:44:26;;;;;;;39.40;25.45;;;8.30;99.90;;;;;;4993920;28;20062;-72
2024/03/12 02:46:54;;;;;;;43.10;23.20;;;8.30;99.90;;;;;;5025595;28;20065;-72
2024/03/12 02:49:22;;;;;;;28.42;18.75;;;8.20;99.90;;;;;;4992820;28;20049;-72
2024/03/12 02:51:50;;;;;;;37.47;22.63;;;8.20;99.90;;;;;;4993628;28;20042;-73
2024/03/12 02:54:17;;;;;;;32.60;21.30;;;8.20;99.90;;;;;;4994100;28;20455;-72
2024/03/12 02:56:44;;;;;;;29.35;22.70;;;8.10;99.90;;;;;;4992666;28;20038;-72
2024/03/12 02:59:12;;;;;;;30.33;20.45;;;8.10;99.90;;;;;;4976495;28;20046;-72
2024/03/12 03:01:39;;;;;;;14.65;12.23;;;8.10;99.90;;;;;;4992673;28;20073;-72
2024/03/12 03:04:10;;;;;;;35.92;21.40;;;8.10;99.90;;;;;;4992595;28;20047;-72
2024/03/12 03:06:37;;;;;;;33.30;19.80;;;8.00;99.90;;;;;;4994012;28;20042;-72
2024/03/12 03:09:09;;;;;;;39.90;24.50;;;8.00;99.90;;;;;;5025186;28;20034;-72
2024/03/12 03:11:36;;;;;;;39.30;24.17;;;8.00;99.90;;;;;;4992263;28;20097;-72
2024/03/12 03:14:03;;;;;;;38.05;22.15;;;8.00;99.90;;;;;;5008343;28;20046;-72
2024/03/12 03:16:33;;;;;;;38.95;23.17;;;8.00;99.90;;;;;;4993827;28;20046;-72
2024/03/12 03:19:00;;;;;;;37.30;21.63;;;8.00;99.90;;;;;;5024548;28;20038;-73
2024/03/12 03:21:27;;;;;;;38.78;23.75;;;8.00;99.90;;;;;;4992196;28;20084;-72
2024/03/12 03:23:54;;;;;;;32.38;21.52;;;8.00;99.90;;;;;;4975900;28;20066;-72
2024/03/12 03:26:22;;;;;;;40.90;24.23;;;8.00;99.90;;;;;;5008488;28;20046;-72
2024/03/12 03:28:49;;;;;;;35.25;21.40;;;8.00;99.90;;;;;;4993421;28;20042;-71
2024/03/12 03:31:16;;;;;;;29.45;19.55;;;8.00;99.90;;;;;;4991955;28;20403;-72
2024/03/12 03:33:45;;;;;;;32.47;21.23;;;8.00;99.90;;;;;;4975910;28;20043;-72
2024/03/12 03:36:16;;;;;;;39.78;24.17;;;8.00;99.90;;;;;;4992324;28;20059;-72
2024/03/12 03:38:43;;;;;;;25.27;14.13;;;8.00;99.90;;;;;;4992222;28;20046;-72
2024/03/12 03:41:10;;;;;;;40.20;23.35;;;8.00;99.90;;;;;;5008028;28;20492;-72
2024/03/12 03:43:37;;;;;;;38.28;22.85;;;8.00;99.90;;;;;;4991840;28;20101;-71
2024/03/12 03:46:05;;;;;;;21.30;13.25;;;8.00;99.90;;;;;;5024454;28;20049;-72
2024/03/12 03:48:32;;;;;;;34.33;22.85;;;8.00;99.90;;;;;;4991929;28;20089;-72
2024/03/12 03:50:59;;;;;;;33.13;19.75;;;8.00;99.90;;;;;;4975615;28;20054;-72
2024/03/12 03:53:27;;;;;;;23.27;13.63;;;8.00;99.90;;;;;;4991843;28;20554;-71
2024/03/12 03:55:54;;;;;;;35.67;23.75;;;8.00;99.90;;;;;;4993032;28;20049;-72
2024/03/12 03:58:24;;;;;;;19.67;12.82;;;8.00;99.90;;;;;;4993248;28;20093;-71
2024/03/12 04:00:51;;;;;;;32.38;22.73;;;8.00;99.90;;;;;;4992102;28;20042;-72
2024/03/12 04:03:19;;;;;;;32.80;19.83;;;8.00;99.90;;;;;;4991351;28;20074;-72
2024/03/12 04:05:47;;;;;;;23.55;13.52;;;8.00;99.90;;;;;;4991732;28;20046;-71
2024/03/12 04:08:18;;;;;;;28.63;16.27;;;8.00;99.90;;;;;;5007868;28;20050;-72
2024/03/12 04:10:46;;;;;;;39.20;23.25;;;8.00;99.90;;;;;;5027409;28;20042;-71
2024/03/12 04:13:15;;;;;;;42.33;25.48;;;8.00;99.90;;;;;;4996695;28;20125;-72
2024/03/12 04:15:42;;;;;;;29.58;17.27;;;8.10;99.90;;;;;;4997256;28;20045;-71
2024/03/12 04:18:11;;;;;;;43.17;25.88;;;8.10;99.90;;;;;;5028129;28;20060;-72
2024/03/12 04:20:38;;;;;;;24.60;16.52;;;8.10;99.90;;;;;;5011915;28;20054;-72
2024/03/12 04:23:05;;;;;;;40.75;23.50;;;8.10;99.90;;;;;;4995342;28;20051;-71
2024/03/12 04:25:32;;;;;;;30.40;18.92;;;8.10;99.90;;;;;;4996766;28;20062;-72
2024/03/12 04:27:59;;;;;;;40.40;22.20;;;8.10;99.90;;;;;;4996276;28;20042;-72
2024/03/12 04:30:26;;;;;;;47.28;26.50;;;8.20;99.90;;;;;;4996567;28;20045;-71
2024/03/12 04:32:53;;;;;;;29.20;16.30;;;8.10;99.90;;;;;;4996511;28;20040;-71
2024/03/12 04:35:20;;;;;;;33.70;21.35;;;8.20;99.90;;;;;;4996374;28;20042;-71
2024/03/12 04:37:50;;;;;;;37.70;19.88;;;8.10;99.90;;;;;;5011570;28;20042;-72
2024/03/12 04:40:21;;;;;;;23.88;17.58;;;8.10;99.90;;;;;;4996291;28;20125;-72
2024/03/12 04:42:48;;;;;;;38.90;24.23;;;8.10;99.90;;;;;;4996443;28;20046;-72
2024/03/12 04:45:15;;;;;;;38.95;28.00;;;8.10;99.90;;;;;;4994921;28;20058;-72
2024/03/12 04:47:42;;;;;;;38.25;24.58;;;8.10;99.90;;;;;;5011320;28;20373;-71
2024/03/12 04:50:11;;;;;;;39.75;22.42;;;8.10;99.90;;;;;;4996188;28;20058;-71
2024/03/12 04:52:38;;;;;;;24.63;15.77;;;8.10;99.90;;;;;;5027152;28;20121;-71
2024/03/12 04:55:06;;;;;;;50.30;34.05;;;8.10;99.90;;;;;;4996273;28;20395;-71
2024/03/12 04:57:35;;;;;;;43.35;23.05;;;8.00;99.90;;;;;;5027861;28;20034;-72
2024/03/12 05:00:13;;;;;;;42.72;21.60;;;8.00;99.90;;;;;;4995987;28;20046;-72
2024/03/12 05:02:41;;;;;;;34.65;20.60;;;8.00;99.90;;;;;;4996164;28;20046;-71
2024/03/12 05:05:08;;;;;;;38.17;22.55;;;7.90;99.90;;;;;;5010864;28;20042;-72
2024/03/12 05:07:35;;;;;;;55.83;28.88;;;7.90;99.90;;;;;;5010860;28;20053;-71
2024/03/12 05:10:04;;;;;;;50.20;26.13;;;7.90;99.90;;;;;;5010975;28;20042;-71
2024/03/12 05:12:31;;;;;;;49.80;25.60;;;7.90;99.90;;;;;;5010707;28;20416;-71
2024/03/12 05:14:58;;;;;;;29.17;19.85;;;7.90;99.90;;;;;;4995817;28;20484;-72
2024/03/12 05:17:25;;;;;;;38.80;22.20;;;8.00;99.90;;;;;;4995540;28;20043;-71
2024/03/12 05:19:53;;;;;;;44.50;23.00;;;7.90;99.90;;;;;;4993180;28;20515;-72
2024/03/12 05:22:20;;;;;;;36.00;20.40;;;8.00;99.90;;;;;;4994309;28;20057;-72
2024/03/12 05:24:47;;;;;;;52.95;21.33;;;8.00;99.90;;;;;;5026900;28;20038;-72
2024/03/12 05:27:21;;;;;;;58.55;29.35;;;7.90;99.90;;;;;;4995584;28;20050;-72
2024/03/12 05:29:52;;;;;;;68.28;31.30;;;7.90;99.90;;;;;;5009681;28;20042;-72
2024/03/12 05:32:21;;;;;;;29.25;19.13;;;7.90;99.90;;;;;;4995359;28;20038;-71
2024/03/12 05:34:52;;;;;;;29.02;16.55;;;8.00;99.90;;;;;;4994256;28;20554;-71
2024/03/12 05:37:28;;;;;;;58.47;29.63;;;7.90;99.90;;;;;;5010308;28;20053;-72
2024/03/12 05:48:13;;;;;;;66.75;30.27;;;8.00;99.90;;;;;;4995090;28;20052;-72
2024/03/12 05:50:42;;;;;;;92.10;42.63;;;8.00;99.90;;;;;;5026538;28;20447;-72
2024/03/12 05:53:09;;;;;;;68.93;33.88;;;8.00;99.90;;;;;;4993832;28;20054;-72
2024/03/12 05:55:36;;;;;;;88.88;43.03;;;8.00;99.90;;;;;;4993744;28;20407;-72
2024/03/12 05:58:04;;;;;;;78.20;35.58;;;8.10;99.90;;;;;;4993798;28;20075;-72
2024/03/12 06:00:32;;;;;;;61.85;28.48;;;8.10;99.90;;;;;;4992676;28;20053;-72
2024/03/12 06:02:59;;;;;;;57.88;27.40;;;8.10;99.90;;;;;;4992974;28;20053;-72
2024/03/12 06:05:26;;;;;;;42.50;21.63;;;8.10;99.90;;;;;;4993312;28;20057;-72
2024/03/12 06:07:53;;;;;;;83.15;35.38;;;8.10;99.90;;;;;;4994512;28;20050;-72
2024/03/12 06:10:21;;;;;;;68.82;30.15;;;8.10;99.90;;;;;;5025783;28;20046;-72
2024/03/12 06:12:49;;;;;;;62.50;29.15;;;8.10;99.90;;;;;;4993428;28;20046;-72
2024/03/12 06:15:16;;;;;;;64.18;32.38;;;8.10;99.90;;;;;;5026039;28;20046;-72
2024/03/12 06:17:43;;;;;;;76.18;34.00;;;8.10;99.90;;;;;;5009673;28;20061;-72
2024/03/12 06:20:12;;;;;;;50.90;26.38;;;8.10;99.90;;;;;;5026120;28;20034;-72
2024/03/12 06:22:42;;;;;;;49.20;26.75;;;8.10;99.90;;;;;;4994825;28;20046;-72
2024/03/12 06:25:09;;;;;;;70.47;34.33;;;8.10;99.90;;;;;;5009176;28;20057;-72
2024/03/12 06:27:39;;;;;;;30.38;16.63;;;8.10;99.90;;;;;;4994520;28;20069;-72
2024/03/12 06:30:07;;;;;;;39.40;22.63;;;8.10;99.90;;;;;;4994344;28;20042;-72
2024/03/12 06:32:34;;;;;;;59.78;28.90;;;8.10;99.90;;;;;;5025339;28;20039;-72
2024/03/12 06:35:01;;;;;;;45.05;23.88;;;8.10;99.90;;;;;;4994372;28;20045;-72
2024/03/12 06:37:28;;;;;;;55.13;29.95;;;8.10;99.90;;;;;;5025704;28;20042;-72
2024/03/12 06:39:55;;;;;;;28.55;16.63;;;8.20;99.90;;;;;;4992677;28;20046;-71
2024/03/12 06:42:26;;;;;;;50.97;27.13;;;8.10;99.90;;;;;;4993954;28;20034;-72
2024/03/12 06:44:54;;;;;;;56.38;31.70;;;8.20;99.90;;;;;;5009126;28;20436;-72
2024/03/12 06:47:21;;;;;;;60.25;31.45;;;8.20;99.90;;;;;;5008920;28;20049;-72
2024/03/12 06:49:48;;;;;;;48.20;27.25;;;8.20;99.90;;;;;;4993944;28;20054;-72
2024/03/12 06:52:16;;;;;;;42.80;24.48;;;8.20;99.90;;;;;;4993943;28;20042;-72
2024/03/12 06:54:47;;;;;;;39.60;21.63;;;8.20;99.90;;;;;;4993875;28;20484;-72
2024/03/12 06:57:19;;;;;;;39.45;23.42;;;8.20;99.90;;;;;;4992576;28;20043;-74
2024/03/12 06:59:49;;;;;;;45.58;28.60;;;8.20;99.90;;;;;;4992429;28;20419;-74
2024/03/12 07:02:17;;;;;;;45.88;22.05;;;8.20;99.90;;;;;;4992342;28;20042;-74
2024/03/12 07:04:47;;;;;;;44.25;26.75;;;8.20;99.90;;;;;;4993605;28;20499;-74
2024/03/12 07:07:25;;;;;;;37.28;22.27;;;8.20;99.90;;;;;;4992372;28;20089;-74
2024/03/12 07:09:54;;;;;;;44.95;25.85;;;8.20;99.90;;;;;;5021747;28;20043;-74
2024/03/12 07:12:21;;;;;;;42.10;22.52;;;8.20;99.90;;;;;;4993277;28;20057;-74
2024/03/12 07:14:54;;;;;;;50.20;32.28;;;8.20;99.90;;;;;;4993250;28;20369;-74
2024/03/12 07:17:22;;;;;;;39.10;21.10;;;8.20;99.90;;;;;;5022679;28;20044;-74
2024/03/12 07:19:49;;;;;;;53.88;27.13;;;8.20;99.90;;;;;;4993414;28;20043;-74
2024/03/12 07:22:20;;;;;;;55.33;31.52;;;8.20;99.90;;;;;;4993401;28;20042;-74
2024/03/12 07:24:47;;;;;;;38.47;23.40;;;8.20;99.90;;;;;;5008520;28;20061;-74
2024/03/12 07:27:14;;;;;;;44.55;23.58;;;8.30;99.90;;;;;;5008481;28;20057;-74
2024/03/12 07:29:43;;;;;;;34.17;21.88;;;8.30;99.90;;;;;;5008009;28;20046;-74
2024/03/12 07:32:10;;;;;;;46.45;29.75;;;8.30;99.90;;;;;;4993206;28;20038;-74
2024/03/12 07:34:39;;;;;;;47.10;28.15;;;8.30;99.90;;;;;;5024248;28;20038;-74
2024/03/12 07:37:06;;;;;;;43.65;27.02;;;8.30;99.90;;;;;;5024149;28;20042;-74
2024/03/12 07:39:36;;;;;;;54.70;27.73;;;8.30;99.90;;;;;;4993179;28;20042;-74
2024/03/12 07:42:09;;;;;;;40.17;23.25;;;8.30;99.90;;;;;;5023795;28;20504;-74
2024/03/12 07:44:39;;;;;;;37.95;23.35;;;8.30;99.90;;;;;;4992616;28;20484;-74
2024/03/12 07:47:06;;;;;;;47.03;28.15;;;8.30;99.90;;;;;;5008081;28;20046;-74
2024/03/12 07:49:36;;;;;;;42.85;25.58;;;8.30;99.90;;;;;;5024121;28;20042;-74
2024/03/12 07:52:05;;;;;;;56.38;32.83;;;8.30;99.90;;;;;;5008095;28;20419;-74
2024/03/12 07:54:33;;;;;;;55.42;28.95;;;8.40;99.90;;;;;;4991495;28;20043;-74
2024/03/12 07:57:00;;;;;;;48.65;24.92;;;8.40;99.90;;;;;;4992862;28;20038;-74
2024/03/12 07:59:31;;;;;;;46.50;26.23;;;8.40;99.90;;;;;;4991503;28;20550;-75
2024/03/12 08:01:58;;;;;;;36.20;20.00;;;8.50;99.90;;;;;;4993053;28;20121;-74
2024/03/12 08:04:26;;;;;;;47.92;28.35;;;8.50;99.90;;;;;;4991814;28;20069;-74
2024/03/12 08:06:53;;;;;;;52.05;30.08;;;8.50;99.90;;;;;;4992725;28;20046;-74
2024/03/12 08:09:21;;;;;;;45.33;28.10;;;8.50;99.90;;;;;;5007879;28;20117;-74
2024/03/12 08:11:48;;;;;;;37.58;21.98;;;8.50;99.90;;;;;;4992596;28;20065;-74
2024/03/12 08:14:17;;;;;;;27.17;20.48;;;8.50;99.90;;;;;;5007640;28;20425;-75
2024/03/12 08:16:44;;;;;;;36.85;21.02;;;8.40;99.90;;;;;;4991423;28;20492;-74
2024/03/12 08:19:12;;;;;;;35.50;21.27;;;8.50;99.90;;;;;;4991523;28;20049;-72
2024/03/12 08:21:40;;;;;;;38.47;24.45;;;8.50;99.90;;;;;;5007494;28;20125;-72
2024/03/12 08:24:10;;;;;;;50.40;27.85;;;8.50;99.90;;;;;;4992939;28;20034;-72
2024/03/12 08:26:37;;;;;;;;;;;8.50;99.90;;;;;;4992965;28;20046;-72
2024/03/12 08:29:04;;;;;;;48.50;32.58;;;8.50;99.90;;;;;;5007803;28;20350;-71
2024/03/12 08:31:33;;;;;;;47.33;24.95;;;8.60;99.90;;;;;;4991341;28;20061;-71
2024/03/12 08:34:02;;;;;;;48.22;28.02;;;8.60;99.90;;;;;;5007453;28;20042;-72
2024/03/12 08:36:30;;;;;;;47.28;23.83;;;8.70;99.90;;;;;;4992354;28;20046;-71
2024/03/12 08:38:58;;;;;;;38.53;20.00;;;8.70;99.90;;;;;;5007568;28;20046;-72
2024/03/12 08:41:26;;;;;;;56.30;31.92;;;8.80;99.90;;;;;;5007845;28;20476;-71
2024/03/12 08:43:53;;;;;;;62.00;30.92;;;8.80;99.90;;;;;;4992209;28;20057;-72
2024/03/12 08:46:20;;;;;;;53.05;30.05;;;8.80;99.90;;;;;;5007560;28;20046;-71
2024/03/12 08:48:47;;;;;;;43.50;24.58;;;8.90;99.90;;;;;;4992351;28;20042;-71
2024/03/12 08:51:14;;;;;;;59.22;30.05;;;8.90;99.90;;;;;;4991234;28;20116;-71
2024/03/12 08:53:41;;;;;;;36.67;21.73;;;9.00;99.90;;;;;;5007107;28;20042;-72
2024/03/12 08:56:09;;;;;;;43.40;23.30;;;9.00;99.90;;;;;;5011096;28;20039;-71
2024/03/12 08:58:36;;;;;;;49.95;32.15;;;8.90;99.90;;;;;;4994696;28;20068;-71
2024/03/12 09:01:04;;;;;;;36.33;22.55;;;8.90;99.90;;;;;;4995098;28;20514;-71
2024/03/12 09:03:31;;;;;;;59.92;31.77;;;8.80;99.90;;;;;;4996242;28;20046;-72
2024/03/12 09:05:59;;;;;;;32.55;18.95;;;8.90;99.90;;;;;;4994789;28;20104;-71
2024/03/12 09:08:26;;;;;;;51.50;30.17;;;8.80;99.90;;;;;;4994620;28;20492;-71
2024/03/12 09:10:53;;;;;;;41.88;22.45;;;8.80;99.90;;;;;;5010761;28;20046;-71
2024/03/12 09:13:21;;;;;;;51.17;31.65;;;8.80;99.90;;;;;;4994483;28;20062;-70
2024/03/12 09:15:50;;;;;;;52.42;30.05;;;8.80;99.90;;;;;;4995430;28;20053;-71
2024/03/12 09:18:20;;;;;;;57.95;29.10;;;8.70;99.90;;;;;;5009885;28;20145;-70
2024/03/12 09:20:50;;;;;;;40.55;20.55;;;8.60;99.90;;;;;;4995440;28;20074;-70
2024/03/12 09:23:19;;;;;;;33.03;18.83;;;8.60;99.90;;;;;;4995617;28;20046;-71
2024/03/12 09:25:47;;;;;;;60.42;30.85;;;8.60;99.90;;;;;;4995293;28;20149;-71
2024/03/12 09:28:16;;;;;;;46.50;25.77;;;8.60;99.90;;;;;;5010337;28;20061;-71
2024/03/12 09:30:43;;;;;;;59.45;27.85;;;8.70;99.90;;;;;;5025932;28;20035;-70
2024/03/12 09:33:12;;;;;;;30.15;16.90;;;8.70;99.90;;;;;;4994039;28;20042;-71
2024/03/12 09:35:39;;;;;;;38.60;20.67;;;8.70;99.90;;;;;;4993272;28;20046;-71
2024/03/12 09:38:09;;;;;;;40.10;22.60;;;8.70;99.90;;;;;;4994103;28;20054;-71
2024/03/12 09:40:36;;;;;;;27.55;18.85;;;8.80;99.90;;;;;;5026695;28;20053;-72
2024/03/12 09:43:05;;;;;;;36.47;18.83;;;8.80;99.90;;;;;;4995300;28;20054;-71
2024/03/12 09:45:33;;;;;;;37.83;20.63;;;8.90;99.90;;;;;;4991013;28;20061;-71
2024/03/12 09:48:01;;;;;;;42.13;20.73;;;9.00;99.90;;;;;;5026326;28;20049;-71
2024/03/12 09:50:29;;;;;;;29.58;18.80;;;9.10;99.90;;;;;;5026554;28;20042;-71
2024/03/12 09:52:57;;;;;;;28.58;15.93;;;9.20;99.90;;;;;;4995008;28;20046;-71
2024/03/12 09:55:25;;;;;;;26.55;13.40;;;9.30;99.90;;;;;;5009754;28;20053;-71
2024/03/12 09:57:52;;;;;;;26.30;18.40;;;9.40;99.90;;;;;;4993588;28;20395;-71
2024/03/12 10:00:22;;;;;;;31.25;16.20;;;9.50;99.90;;;;;;4993793;28;20054;-71
2024/03/12 10:02:50;;;;;;;21.73;15.32;;;9.70;99.90;;;;;;4994793;28;20089;-71
2024/03/12 10:05:24;;;;;;;18.15;14.98;;;9.80;99.90;;;;;;4994690;28;20385;-71
2024/03/12 10:08:13;;;;;;;14.90;12.43;;;9.80;99.90;;;;;;5008901;28;20381;-71
2024/03/12 10:10:46;;;;;;;13.75;9.93;;;9.80;99.90;;;;;;4994850;28;20042;-71
2024/03/12 10:13:15;;;;;;;14.50;9.85;;;9.80;99.90;;;;;;4994863;28;20077;-71
2024/03/12 10:15:56;;;;;;;18.08;13.80;;;9.80;99.90;;;;;;4994604;28;20459;-71
2024/03/12 10:18:26;;;;;;;17.85;11.05;;;9.70;99.90;;;;;;5009595;28;20077;-71
2024/03/12 10:20:58;;;;;;;14.50;10.80;;;9.50;99.90;;;;;;4994720;28;20395;-71
2024/03/12 10:23:27;;;;;;;16.67;13.35;;;9.50;99.90;;;;;;4993636;28;20387;-71
2024/03/12 10:26:15;;;;;;;12.98;7.70;;;9.40;99.90;;;;;;5003065;28;20399;-71
2024/03/12 10:28:45;;;;;;;14.15;9.32;;;9.50;99.90;;;;;;5005962;28;20043;-71
2024/03/12 10:31:14;;;;;;;11.75;9.70;;;9.60;99.90;;;;;;4973999;28;20395;-70
2024/03/12 10:33:48;;;;;;;16.90;10.10;;;9.80;99.90;;;;;;4974008;28;20047;-70
2024/03/12 10:36:30;;;;;;;17.63;10.15;;;10.00;99.90;;;;;;4974919;28;20403;-72
2024/03/12 10:38:58;;;;;;;14.90;10.43;;;10.10;99.90;;;;;;4974897;28;20062;-71
2024/03/12 10:41:26;;;;;;;8.85;6.88;;;10.20;99.90;;;;;;4974760;28;20039;-71
2024/03/12 10:44:12;;;;;;;11.55;8.85;;;10.10;99.90;;;;;;4974506;28;20568;-71
2024/03/12 10:46:46;;;;;;;11.20;6.80;;;10.00;99.90;;;;;;4973392;28;20105;-71
2024/03/12 10:49:17;;;;;;;11.25;7.20;;;10.00;99.90;;;;;;4974922;28;20042;-72
2024/03/12 10:51:45;;;;;;;12.50;9.48;;;9.80;99.90;;;;;;4974612;28;20448;-74
2024/03/12 10:54:14;;;;;;;8.55;6.57;;;9.80;99.90;;;;;;4957075;28;20062;-74
2024/03/12 10:56:42;;;;;;;14.18;9.30;;;9.80;99.90;;;;;;4989588;28;20047;-74
2024/03/12 10:59:12;;;;;;;8.95;4.78;;;9.90;99.90;;;;;;4973190;28;20069;-74
2024/03/12 11:01:40;;;;;;;12.48;8.18;;;10.00;99.90;;;;;;4973423;28;20078;-75
2024/03/12 11:04:12;;;;;;;10.32;6.60;;;10.10;99.90;;;;;;4973307;28;20042;-71
2024/03/12 11:06:39;;;;;;;9.35;6.15;;;10.20;99.90;;;;;;4974759;28;20066;-71
2024/03/12 11:09:07;;;;;;;7.95;4.40;;;10.30;99.90;;;;;;4974172;28;20060;-71
2024/03/12 11:11:35;;;;;;;8.35;6.47;;;10.30;99.90;;;;;;4974388;28;20065;-71
2024/03/12 11:14:03;;;;;;;12.30;9.43;;;10.30;99.90;;;;;;4972632;28;20051;-71
2024/03/12 11:16:34;;;;;;;11.48;8.73;;;10.30;99.90;;;;;;4974222;28;20487;-71
2024/03/12 11:19:24;;;;;;;10.50;8.13;;;10.30;99.90;;;;;;4972571;28;20054;-72
2024/03/12 11:21:52;;;;;;;10.10;6.97;;;10.20;99.90;;;;;;4974247;28;20058;-72
2024/03/12 11:24:42;;;;;;;9.93;6.78;;;10.10;99.90;;;;;;4974035;28;20042;-71
2024/03/12 11:27:25;;;;;;;11.18;8.63;;;10.10;99.90;;;;;;4972544;28;20057;-71
2024/03/12 11:30:08;;;;;;;;;;;10.00;99.90;;;;;;4973081;28;20089;-71
2024/03/12 11:32:48;;;;;;;11.75;7.75;;;9.80;99.90;;;;;;4972781;28;19922;-71
2024/03/12 11:35:21;;;;;;;12.10;7.88;;;9.70;99.90;;;;;;4988658;28;20097;-71
2024/03/12 11:38:01;;;;;;;8.63;6.30;;;9.60;99.90;;;;;;4972633;28;20039;-72
2024/03/12 11:40:32;;;;;;;27.25;8.48;;;9.60;99.90;;;;;;4973913;28;20050;-71
2024/03/12 11:42:59;;;;;;;18.10;10.85;;;9.50;99.90;;;;;;4973731;28;20039;-71
2024/03/12 11:45:39;;;;;;;15.27;11.25;;;9.50;99.90;;;;;;4988581;28;20059;-71
2024/03/12 11:48:20;;;;;;;14.50;9.50;;;9.40;99.90;;;;;;4973614;28;20050;-71
2024/03/12 11:50:52;;;;;;;16.63;10.73;;;9.30;99.90;;;;;;4988636;28;20057;-71
2024/03/12 11:53:25;;;;;;;11.35;6.93;;;9.00;99.90;;;;;;4988344;28;20082;-72
2024/03/12 11:56:10;;;;;;;14.57;9.75;;;8.90;99.90;;;;;;4973588;28;20043;-71
2024/03/12 11:58:46;;;;;;;17.25;10.27;;;8.80;99.90;;;;;;4973677;28;20046;-74
2024/03/12 12:01:31;;;;;;;17.50;8.25;;;8.80;99.90;;;;;;4972170;28;20047;-74
2024/03/12 12:04:00;;;;;;;13.48;7.00;;;8.70;99.90;;;;;;4956840;28;20141;-74
2024/03/12 12:06:28;;;;;;;15.10;8.52;;;8.70;99.90;;;;;;4988462;28;20052;-71
2024/03/12 12:08:55;;;;;;;17.05;11.73;;;8.70;99.90;;;;;;4973771;28;20055;-71
2024/03/12 12:11:25;;;;;;;26.23;16.58;;;8.70;99.90;;;;;;4973463;28;20043;-72
2024/03/12 12:13:55;;;;;;;20.92;11.13;;;8.70;99.90;;;;;;4972143;28;20090;-71
2024/03/12 12:16:22;;;;;;;17.85;10.75;;;8.70;99.90;;;;;;4973163;28;20042;-71
2024/03/12 12:18:49;;;;;;;22.95;12.38;;;8.80;99.90;;;;;;4988211;28;20055;-71
2024/03/12 12:21:17;;;;;;;16.67;10.73;;;8.90;99.90;;;;;;4972092;28;20402;-72
2024/03/12 12:23:46;;;;;;;16.45;8.18;;;8.90;99.90;;;;;;4988629;28;20060;-72
2024/03/12 12:26:20;;;;;;;25.48;13.20;;;8.90;99.90;;;;;;4973290;28;20039;-71
2024/03/12 12:28:51;;;;;;;19.30;8.60;;;8.80;99.90;;;;;;4973608;28;20051;-71
2024/03/12 12:31:21;;;;;;;16.20;9.52;;;8.80;99.90;;;;;;4976990;28;20067;-71
2024/03/12 12:33:56;;;;;;;21.02;10.18;;;8.90;99.90;;;;;;4975835;28;20058;-71
2024/03/12 12:36:26;;;;;;;20.05;9.20;;;8.90;99.90;;;;;;5008004;28;20043;-71
2024/03/12 12:38:54;;;;;;;17.67;10.65;;;8.90;99.90;;;;;;4975877;28;20097;-71
2024/03/12 12:41:24;;;;;;;19.00;11.93;;;8.90;99.90;;;;;;4977144;28;20066;-71
2024/03/12 12:43:53;;;;;;;22.73;12.27;;;8.90;99.90;;;;;;4991836;28;20039;-71
2024/03/12 12:46:27;;;;;;;22.67;14.20;;;8.90;99.90;;;;;;4976603;28;20082;-71
2024/03/12 12:48:54;;;;;;;22.92;10.43;;;8.80;99.90;;;;;;4976964;28;20049;-71
2024/03/12 12:51:23;;;;;;;21.42;12.00;;;8.90;99.90;;;;;;4976695;28;20078;-71
2024/03/12 12:54:14;;;;;;;18.75;9.57;;;8.90;99.90;;;;;;4975561;28;20054;-71
2024/03/12 12:56:45;;;;;;;25.25;13.43;;;8.90;99.90;;;;;;4975561;28;20110;-71